SANE/SDE METAR and TAF weather

Enter ICAO airport designator
Station Type Date Time Source
SANE METAR 2018/12/18 18:10 UTC NOAA

SANE 181810Z 09004KT 4000 RA SCT008 BKN015 22/20 Q1016


Station Type Date Time Source
SANE Decoded METAR 2018/12/18 18:10 UTC NOAA

Santiago Del Estero Aero., Argentina (SANE) 27-46S 064-18W 199M
Dec 18, 2018 - 01:10 PM EST / 2018.12.18 1810 UTC
Wind: from the E (090 degrees) at 5 MPH (4 KT):0
Visibility: 2 mile(s):0
Sky conditions: mostly cloudy
Weather: rain
Temperature: 71 F (22 C)
Dew Point: 68 F (20 C)
Relative Humidity: 88%
Pressure (altimeter): 30.00 in. Hg (1016 hPa)
ob: SANE 181810Z 09004KT 4000 RA SCT008 BKN015 22/20 Q1016
cycle: 18

Station Type Date Time Source
SANE TAF 2018/11/24 18:12 UTC NOAA

TAF TAF SANE 241700Z 2418/2518 09005KT 9999 SCT030 TX30/2518Z TN20/2510Z
BECMG 2410/2412 14010KT CAVOK


Example: see airport list